Time;durP1;ratioP1;P1;durP2;ratioP2;P2;SDS_P1;SDS_P2;PMS_P1;PMS_P2;Temp;Humidity;BMP_temperature;BMP_pressure;BME280_temperature;BME280_humidity;BME280_pressure;Samples;Min_cycle;Max_cycle;Signal;HPM_P1;HPM_P2
2023/05/10 00:00:36;;;;;;;;;;;13.30;99.90;;;;;;5112006;28;19919;-70
2023/05/10 00:03:04;;;;;;;;;;;13.30;99.90;;;;;;5127549;27;19944;-70
2023/05/10 00:05:30;;;;;;;;;;;13.50;99.90;;;;;;5132504;27;19915;-70
2023/05/10 00:07:56;;;;;;;;;;;13.20;99.90;;;;;;5145930;27;19919;-70
2023/05/10 00:10:21;;;;;;;;;;;13.40;99.90;;;;;;5134548;27;19971;-70
2023/05/10 00:12:47;;;;;;;;;;;13.50;99.90;;;;;;5127352;27;19922;-71
2023/05/10 00:15:12;;;;;;;;;;;13.50;99.90;;;;;;5119934;27;19985;-70
2023/05/10 00:17:38;;;;;;;;;;;12.60;99.90;;;;;;5127587;27;20351;-70
2023/05/10 00:20:04;;;;;;;;;;;12.60;99.90;;;;;;5132252;27;19923;-70
2023/05/10 00:22:30;;;;;;;;;;;13.50;99.90;;;;;;5141077;27;20027;-70
2023/05/10 00:24:56;;;;;;;;;;;13.30;99.90;;;;;;5140838;27;20010;-70
2023/05/10 00:27:21;;;;;;;;;;;12.70;99.90;;;;;;5106192;27;19970;-70
2023/05/10 00:29:47;;;;;;;;;;;13.40;99.90;;;;;;5118345;27;19915;-70
2023/05/10 00:32:13;;;;;;;;;;;12.40;99.90;;;;;;5139125;27;19980;-70
2023/05/10 00:34:39;;;;;;;;;;;12.90;99.90;;;;;;5146111;27;19930;-70
2023/05/10 00:37:05;;;;;;;;;;;13.00;99.90;;;;;;5131790;27;19922;-73
2023/05/10 00:39:31;;;;;;;;;;;12.40;99.90;;;;;;5122515;27;20302;-73
2023/05/10 00:41:56;;;;;;;;;;;12.40;99.90;;;;;;5121555;27;19926;-72
2023/05/10 00:44:22;;;;;;;;;;;12.50;99.90;;;;;;5152720;27;20279;-73
2023/05/10 00:46:48;;;;;;;;;;;12.20;99.90;;;;;;5138982;27;20027;-72
2023/05/10 00:49:14;;;;;;;;;;;13.30;99.90;;;;;;5118245;27;19931;-73
2023/05/10 00:51:39;;;;;;;;;;;13.00;99.90;;;;;;5111731;28;20014;-73
2023/05/10 00:54:05;;;;;;;;;;;12.20;99.90;;;;;;5147131;27;20316;-72
2023/05/10 00:56:31;;;;;;;;;;;12.90;99.90;;;;;;5152160;27;19945;-73
2023/05/10 00:58:56;;;;;;;;;;;13.30;99.90;;;;;;5125359;27;19919;-73
2023/05/10 01:01:22;;;;;;;;;;;13.10;99.90;;;;;;5152129;27;19923;-73
2023/05/10 01:03:48;;;;;;;;;;;13.10;99.90;;;;;;5138480;27;19915;-73
2023/05/10 01:06:14;;;;;;;;;;;12.20;99.90;;;;;;5100887;27;19923;-73
2023/05/10 01:08:39;;;;;;;;;;;12.50;99.90;;;;;;5143993;27;19915;-73
2023/05/10 01:11:05;;;;;;;;;;;13.10;99.90;;;;;;5152064;27;20238;-73
2023/05/10 01:13:31;;;;;;;;;;;12.20;99.90;;;;;;5141002;27;19930;-73
2023/05/10 01:15:57;;;;;;;;;;;12.40;99.90;;;;;;5131218;27;20384;-73
2023/05/10 01:18:22;;;;;;;;;;;13.10;99.90;;;;;;5131176;27;19926;-73
2023/05/10 01:20:53;;;;;;;;;;;13.20;99.90;;;;;;5131080;27;19983;-73
2023/05/10 01:23:18;;;;;;;;;;;12.50;99.90;;;;;;5105907;27;19968;-73
2023/05/10 01:25:47;;;;;;;;;;;13.00;99.90;;;;;;5113717;27;19919;-73
2023/05/10 01:28:25;;;;;;;;;;;12.10;99.90;;;;;;5120500;27;19919;-73
2023/05/10 01:30:54;;;;;;;;;;;12.60;99.90;;;;;;5151572;27;19923;-73
2023/05/10 01:33:22;;;;;;;;;;;12.00;99.90;;;;;;5151730;27;19918;-73
2023/05/10 01:35:53;;;;;;;;;;;12.10;99.90;;;;;;5136238;27;19923;-73
2023/05/10 01:38:28;;;;;;;;;;;12.30;99.90;;;;;;5130173;27;19920;-73
2023/05/10 01:41:12;;;;;;;;;;;12.60;99.90;;;;;;5100761;28;20343;-73
2023/05/10 01:43:55;;;;;;;;;;;12.70;99.90;;;;;;5121703;27;20346;-73
2023/05/10 01:46:32;;;;;;;;;;;12.20;99.90;;;;;;5118859;27;19927;-73
2023/05/10 01:48:59;;;;;;;;;;;12.20;99.90;;;;;;5151132;27;20004;-73
2023/05/10 01:51:25;;;;;;;;;;;12.30;99.90;;;;;;5139748;27;20289;-73
2023/05/10 01:53:58;;;;;;;;;;;12.60;99.90;;;;;;5122736;27;19987;-73
2023/05/10 01:56:25;;;;;;;;;;;12.10;99.90;;;;;;5134004;27;19923;-73
2023/05/10 01:58:52;;;;;;;;;;;11.90;99.90;;;;;;5136936;27;19916;-73
2023/05/10 02:01:20;;;;;;;;;;;13.00;99.90;;;;;;5120247;27;20370;-73
2023/05/10 02:03:46;;;;;;;;;;;13.10;99.90;;;;;;5137346;27;19926;-73
2023/05/10 02:06:13;;;;;;;;;;;12.00;99.90;;;;;;5137294;27;19915;-73
2023/05/10 02:08:39;;;;;;;;;;;12.80;99.90;;;;;;5142544;27;19925;-73
2023/05/10 02:11:05;;;;;;;;;;;12.80;99.90;;;;;;5157942;27;19915;-72
2023/05/10 02:13:33;;;;;;;;;;;12.40;99.90;;;;;;5140751;27;20374;-72
2023/05/10 02:15:59;;;;;;;;;;;12.00;99.90;;;;;;5137244;27;19922;-73
2023/05/10 02:18:25;;;;;;;;;;;11.90;99.90;;;;;;5137161;27;20006;-73
2023/05/10 02:20:52;;;;;;;;;;;12.80;99.90;;;;;;5137513;27;20006;-72
2023/05/10 02:23:18;;;;;;;;;;;11.90;99.90;;;;;;5137075;27;20011;-72
2023/05/10 02:25:45;;;;;;;;;;;11.90;99.90;;;;;;5137148;27;19926;-73
2023/05/10 02:28:11;;;;;;;;;;;12.90;99.90;;;;;;5137074;27;19916;-73
2023/05/10 02:30:37;;;;;;;;;;;11.90;99.90;;;;;;5134476;27;20413;-73
2023/05/10 02:33:04;;;;;;;;;;;11.90;99.90;;;;;;5133529;27;19919;-73
2023/05/10 02:35:30;;;;;;;;;;;11.80;99.90;;;;;;5135719;27;19926;-73
2023/05/10 02:37:56;;;;;;;;;;;13.10;99.90;;;;;;5121416;27;19923;-73
2023/05/10 02:40:22;;;;;;;;;;;11.80;99.90;;;;;;5131348;27;19920;-73
2023/05/10 02:42:49;;;;;;;;;;;12.10;99.90;;;;;;5110050;28;19915;-73
2023/05/10 02:45:18;;;;;;;;;;;11.90;99.90;;;;;;5132091;27;19919;-73
2023/05/10 02:47:43;;;;;;;;;;;12.90;99.90;;;;;;5137439;27;19971;-73
2023/05/10 02:50:09;;;;;;;;;;;12.00;99.90;;;;;;5136684;27;20009;-72
2023/05/10 02:52:46;;;;;;;;;;;12.80;99.90;;;;;;5134042;27;20359;-72
2023/05/10 02:55:13;;;;;;;;;;;11.90;99.90;;;;;;5116099;27;20390;-72
2023/05/10 02:57:41;;;;;;;;;;;12.00;99.90;;;;;;5137010;27;19919;-73
2023/05/10 03:00:06;;;;;;;;;;;12.10;99.90;;;;;;5131720;27;19926;-73
2023/05/10 03:02:32;;;;;;;;;;;12.20;99.90;;;;;;5157022;27;19919;-72
2023/05/10 03:04:58;;;;;;;;;;;12.80;99.90;;;;;;5138691;27;19933;-73
2023/05/10 03:07:23;;;;;;;;;;;12.60;99.90;;;;;;5146006;27;19926;-73
2023/05/10 03:09:49;;;;;;;;;;;12.10;99.90;;;;;;5144995;27;20007;-73
2023/05/10 03:12:23;;;;;;;;;;;12.90;99.90;;;;;;5133445;27;19919;-73
2023/05/10 03:14:52;;;;;;;;;;;11.80;99.90;;;;;;5136372;27;19967;-73
2023/05/10 03:17:44;;;;;;;;;;;12.80;99.90;;;;;;5122919;27;19923;-73
2023/05/10 03:20:11;;;;;;;;;;;12.00;99.90;;;;;;5094562;27;20009;-73
2023/05/10 03:22:38;;;;;;;;;;;12.30;99.90;;;;;;5117522;27;19916;-73
2023/05/10 03:25:08;;;;;;;;;;;11.80;99.90;;;;;;5142830;27;20037;-73
2023/05/10 03:27:35;;;;;;;;;;;12.90;99.90;;;;;;5128887;27;20209;-73
2023/05/10 03:30:02;;;;;;;;;;;11.90;99.90;;;;;;5142527;27;19966;-73
2023/05/10 03:32:28;;;;;;;;;;;12.80;99.90;;;;;;5153214;27;20214;-73
2023/05/10 03:34:54;;;;;;;;;;;13.20;99.90;;;;;;5146897;27;20315;-73
2023/05/10 03:37:20;;;;;;;;;;;13.10;99.90;;;;;;5138901;27;20371;-73
2023/05/10 03:39:45;;;;;;;;;;;12.90;99.90;;;;;;5124386;27;19942;-73
2023/05/10 03:42:11;;;;;;;;;;;13.20;99.90;;;;;;5153663;27;19930;-73
2023/05/10 03:44:38;;;;;;;;;;;13.20;99.90;;;;;;5153215;27;19923;-73
2023/05/10 03:47:04;;;;;;;;;;;12.90;99.90;;;;;;5148317;27;20340;-73
2023/05/10 03:49:29;;;;;;;;;;;12.30;99.90;;;;;;5130965;27;19942;-73
2023/05/10 03:51:55;;;;;;;;;;;11.90;99.90;;;;;;5125002;27;19962;-73
2023/05/10 03:54:21;;;;;;;;;;;13.20;99.90;;;;;;5151754;27;19965;-73
2023/05/10 03:56:47;;;;;;;;;;;11.90;99.90;;;;;;5135710;27;19919;-73
2023/05/10 03:59:13;;;;;;;;;;;11.80;99.90;;;;;;5153772;27;19919;-73
2023/05/10 04:01:39;;;;;;;;;;;12.30;99.90;;;;;;5134808;27;19923;-73
2023/05/10 04:04:04;;;;;;;;;;;12.10;99.90;;;;;;5114667;27;19927;-72
2023/05/10 04:06:30;;;;;;;;;;;12.60;99.90;;;;;;5148458;27;19914;-73
2023/05/10 04:08:56;;;;;;;;;;;12.10;99.90;;;;;;5133042;27;19921;-73
2023/05/10 04:11:21;;;;;;;;;;;11.90;99.90;;;;;;5144681;27;19918;-73
2023/05/10 04:13:47;;;;;;;;;;;12.50;99.90;;;;;;5119341;27;19928;-73
2023/05/10 04:16:12;;;;;;;;;;;13.10;99.90;;;;;;5144270;27;19922;-73
2023/05/10 04:18:39;;;;;;;;;;;11.90;99.90;;;;;;5136877;27;20543;-73
2023/05/10 04:21:10;;;;;;;;;;;13.00;99.90;;;;;;5143152;27;19951;-73
2023/05/10 04:23:36;;;;;;;;;;;12.10;99.90;;;;;;5131807;27;20281;-73
2023/05/10 04:26:02;;;;;;;;;;;12.60;99.90;;;;;;5125752;27;19920;-73
2023/05/10 04:28:27;;;;;;;;;;;12.80;99.90;;;;;;5116091;27;19958;-73
2023/05/10 04:30:53;;;;;;;;;;;11.80;99.90;;;;;;5116822;27;19916;-73
2023/05/10 04:33:18;;;;;;;;;;;12.80;99.90;;;;;;5120814;27;19968;-73
2023/05/10 04:35:45;;;;;;;;;;;12.70;99.90;;;;;;5120727;27;20382;-73
2023/05/10 04:38:10;;;;;;;;;;;12.00;99.90;;;;;;5129520;27;20408;-73
2023/05/10 04:40:36;;;;;;;;;;;12.60;99.90;;;;;;5120764;27;19919;-73
2023/05/10 04:43:01;;;;;;;;;;;11.90;99.90;;;;;;5129551;27;19919;-73
2023/05/10 04:45:27;;;;;;;;;;;11.80;99.90;;;;;;5140647;27;19915;-73
2023/05/10 04:47:52;;;;;;;;;;;11.80;99.90;;;;;;5120664;27;20356;-73
2023/05/10 04:50:18;;;;;;;;;;;12.40;99.90;;;;;;5137139;27;19938;-73
2023/05/10 04:52:43;;;;;;;;;;;11.70;99.90;;;;;;5114700;27;19919;-73
2023/05/10 04:55:09;;;;;;;;;;;12.60;99.90;;;;;;5110342;28;19923;-73
2023/05/10 04:57:35;;;;;;;;;;;12.70;99.90;;;;;;5092810;28;19975;-74
2023/05/10 05:00:01;;;;;;;;;;;12.60;99.90;;;;;;5125340;27;20424;-74
2023/05/10 05:02:27;;;;;;;;;;;12.00;99.90;;;;;;5117653;27;19919;-74
2023/05/10 05:04:52;;;;;;;;;;;11.60;99.90;;;;;;5113592;27;19915;-74
2023/05/10 05:07:18;;;;;;;;;;;11.70;99.90;;;;;;5136468;27;19972;-74
2023/05/10 05:09:43;;;;;;;;;;;11.70;99.90;;;;;;5116989;27;19919;-74
2023/05/10 05:12:13;;;;;;;;;;;11.90;99.90;;;;;;5109809;27;19926;-74
2023/05/10 05:14:39;;;;;;;;;;;13.00;99.90;;;;;;5151565;27;20037;-74
2023/05/10 05:17:05;;;;;;;;;;;12.40;99.90;;;;;;5134497;27;19920;-74
2023/05/10 05:19:31;;;;;;;;;;;11.70;99.90;;;;;;5112322;27;19927;-75
2023/05/10 05:21:56;;;;;;;;;;;12.00;99.90;;;;;;5131243;27;19954;-74
2023/05/10 05:24:22;;;;;;;;;;;11.60;99.90;;;;;;5114809;27;20305;-74
2023/05/10 05:26:47;;;;;;;;;;;12.00;99.90;;;;;;5111962;27;19916;-74
2023/05/10 05:29:13;;;;;;;;;;;11.60;99.90;;;;;;5136668;27;19922;-74
2023/05/10 05:31:39;;;;;;;;;;;13.00;99.90;;;;;;5145320;27;19971;-74
2023/05/10 05:34:04;;;;;;;;;;;13.10;99.90;;;;;;5127951;27;19923;-74
2023/05/10 05:36:31;;;;;;;;;;;12.80;99.90;;;;;;5131663;27;19921;-74
2023/05/10 05:38:57;;;;;;;;;;;11.70;99.90;;;;;;5116141;27;19999;-74
2023/05/10 05:41:24;;;;;;;;;;;11.80;99.90;;;;;;5127621;27;20009;-73
2023/05/10 05:43:49;;;;;;;;;;;13.20;99.90;;;;;;5127794;27;20311;-73
2023/05/10 05:46:15;;;;;;;;;;;13.10;99.90;;;;;;5121303;27;19923;-73
2023/05/10 05:48:41;;;;;;;;;;;13.30;99.90;;;;;;5128152;27;19919;-73
2023/05/10 05:51:06;;;;;;;;;;;13.30;99.90;;;;;;5121270;27;20389;-73
2023/05/10 05:53:32;;;;;;;;;;;11.80;99.90;;;;;;5131810;27;19939;-73
2023/05/10 05:55:58;;;;;;;;;;;11.70;99.90;;;;;;5128412;27;20270;-72
2023/05/10 05:58:24;;;;;;;;;;;13.30;99.90;;;;;;5127950;27;19916;-72
2023/05/10 06:00:51;;;;;;;;;;;11.80;99.90;;;;;;5114979;27;19916;-73
2023/05/10 06:03:17;;;;;;;;;;;11.90;99.90;;;;;;5138389;27;20251;-73
2023/05/10 06:05:43;;;;;;;;;;;11.70;99.90;;;;;;5108390;28;19942;-73
2023/05/10 06:08:08;;;;;;;;;;;13.30;99.90;;;;;;5118334;27;19919;-73
2023/05/10 06:10:34;;;;;;;;;;;11.80;99.90;;;;;;5115256;27;19919;-73
2023/05/10 06:13:00;;;;;;;;;;;13.40;99.90;;;;;;5129939;27;19915;-73
2023/05/10 06:15:25;;;;;;;;;;;13.40;99.90;;;;;;5124696;27;20394;-72
2023/05/10 06:17:51;;;;;;;;;;;13.40;99.90;;;;;;5123599;27;19919;-73
2023/05/10 06:20:17;;;;;;;;;;;12.40;99.90;;;;;;5096159;28;20011;-73
2023/05/10 06:22:42;;;;;;;;;;;13.00;99.90;;;;;;5128066;27;19927;-73
2023/05/10 06:25:08;;;;;;;;;;;13.20;99.90;;;;;;5127162;28;19991;-73
2023/05/10 06:27:34;;;;;;;;;;;11.70;99.90;;;;;;5125621;28;19919;-73
2023/05/10 06:30:00;;;;;;;;;;;13.20;99.90;;;;;;5093389;28;19916;-72
2023/05/10 06:32:26;;;;;;;;;;;11.70;99.90;;;;;;5095524;28;19968;-72
2023/05/10 06:34:52;;;;;;;;;;;13.30;99.90;;;;;;5117548;28;20515;-72
2023/05/10 06:37:17;;;;;;;;;;;12.10;99.90;;;;;;5121898;28;19964;-72
2023/05/10 06:39:43;;;;;;;;;;;11.50;99.90;;;;;;5122464;27;19926;-73
2023/05/10 06:42:08;;;;;;;;;;;11.80;99.90;;;;;;5114028;27;19931;-73
2023/05/10 06:44:34;;;;;;;;;;;11.60;99.90;;;;;;5127755;27;20377;-73
2023/05/10 06:47:00;;;;;;;;;;;13.30;99.90;;;;;;5133740;27;19926;-73
2023/05/10 06:49:25;;;;;;;;;;;13.20;99.90;;;;;;5138640;27;19964;-73
2023/05/10 06:51:51;;;;;;;;;;;13.00;99.90;;;;;;5136492;27;20247;-73
2023/05/10 06:54:17;;;;;;;;;;;13.30;99.90;;;;;;5134547;27;19919;-73
2023/05/10 06:56:43;;;;;;;;;;;12.90;99.90;;;;;;5133609;27;19915;-73
2023/05/10 06:59:08;;;;;;;;;;;11.50;99.90;;;;;;5137238;27;19926;-72
2023/05/10 07:01:34;;;;;;;;;;;11.60;99.90;;;;;;5115216;27;20027;-73
2023/05/10 07:04:00;;;;;;;;;;;13.30;99.90;;;;;;5124083;27;20289;-72
2023/05/10 07:06:25;;;;;;;;;;;11.80;99.90;;;;;;5133822;27;20283;-72
2023/05/10 07:08:51;;;;;;;;;;;13.20;99.90;;;;;;5137055;27;20306;-72
2023/05/10 07:11:16;;;;;;;;;;;11.50;99.90;;;;;;5134843;27;19928;-73
2023/05/10 07:13:44;;;;;;;;;;;13.00;99.90;;;;;;5123566;27;19930;-75
2023/05/10 07:16:09;;;;;;;;;;;12.00;99.90;;;;;;5103726;27;20278;-73
2023/05/10 07:18:35;;;;;;;;;;;11.80;99.90;;;;;;5120190;27;19919;-73
2023/05/10 07:21:01;;;;;;;;;;;12.00;99.90;;;;;;5144206;27;20007;-73
2023/05/10 07:23:27;;;;;;;;;;;11.70;99.90;;;;;;5126901;27;19915;-73
2023/05/10 07:25:53;;;;;;;;;;;13.40;99.90;;;;;;5120743;27;19959;-73
2023/05/10 07:28:18;;;;;;;;;;;12.00;99.90;;;;;;5122722;27;20271;-73
2023/05/10 07:30:44;;;;;;;;;;;11.70;99.90;;;;;;5116026;27;20014;-74
2023/05/10 07:33:11;;;;;;;;;;;11.90;99.90;;;;;;5116884;27;20359;-74
2023/05/10 07:35:37;;;;;;;;;;;13.30;99.90;;;;;;5125217;27;19970;-74
2023/05/10 07:38:02;;;;;;;;;;;12.80;99.90;;;;;;5126415;27;19965;-73
2023/05/10 07:40:28;;;;;;;;;;;12.00;99.90;;;;;;5110098;27;20354;-74
2023/05/10 07:42:54;;;;;;;;;;;13.00;99.90;;;;;;5134351;27;19926;-72
2023/05/10 07:45:19;;;;;;;;;;;13.40;99.90;;;;;;5132594;27;19915;-72
2023/05/10 07:47:45;;;;;;;;;;;12.20;99.90;;;;;;5126349;27;19971;-72
2023/05/10 07:50:11;;;;;;;;;;;11.90;99.90;;;;;;5132513;27;20374;-73
2023/05/10 07:52:36;;;;;;;;;;;12.80;99.90;;;;;;5137479;27;19940;-73
2023/05/10 07:55:02;;;;;;;;;;;13.60;99.90;;;;;;5152113;27;19922;-73
2023/05/10 07:57:27;;;;;;;;;;;12.20;99.90;;;;;;5143415;27;19946;-72
2023/05/10 07:59:53;;;;;;;;;;;12.10;99.90;;;;;;5126100;27;19980;-73
2023/05/10 08:02:20;;;;;;;;;;;12.10;99.90;;;;;;5111671;27;19972;-73
2023/05/10 08:04:45;;;;;;;;;;;13.00;99.90;;;;;;5130118;27;19919;-73
2023/05/10 08:07:11;;;;;;;;;;;13.10;99.90;;;;;;5124927;27;20006;-72
2023/05/10 08:09:37;;;;;;;;;;;13.60;99.90;;;;;;5125276;27;19920;-72
2023/05/10 08:12:02;;;;;;;;;;;12.50;99.90;;;;;;5123011;27;20316;-73
2023/05/10 08:14:29;;;;;;;;;;;12.90;99.90;;;;;;5131185;27;19919;-73
2023/05/10 08:16:55;;;;;;;;;;;13.40;99.90;;;;;;5131440;27;19919;-73
2023/05/10 08:19:21;;;;;;;;;;;12.80;99.90;;;;;;5129546;27;19919;-73
2023/05/10 08:21:47;;;;;;;;;;;12.10;99.90;;;;;;5116578;27;20293;-73
2023/05/10 08:24:12;;;;;;;;;;;12.20;99.90;;;;;;5114543;27;19967;-73
2023/05/10 08:26:38;;;;;;;;;;;13.20;99.90;;;;;;5120164;27;20370;-73
2023/05/10 08:29:04;;;;;;;;;;;13.00;99.90;;;;;;5126177;27;19919;-73
2023/05/10 08:31:29;;;;;;;;;;;12.20;99.90;;;;;;5119130;27;19916;-73
2023/05/10 08:33:55;;;;;;;;;;;13.00;99.90;;;;;;5130567;27;20288;-73
2023/05/10 08:36:23;;;;;;;;;;;13.30;99.90;;;;;;5108822;27;19922;-73
2023/05/10 08:38:52;;;;;;;;;;;12.20;99.90;;;;;;5119886;27;19919;-73
2023/05/10 08:41:21;;;;;;;;;;;12.90;99.90;;;;;;5116023;27;19919;-73
2023/05/10 08:43:47;;;;;;;;;;;12.40;99.90;;;;;;5118063;27;21187;-72
2023/05/10 08:46:19;;;;;;;;;;;12.30;99.90;;;;;;5133748;27;19967;-72
2023/05/10 08:48:46;;;;;;;;;;;13.50;99.90;;;;;;5132215;27;19915;-73
2023/05/10 08:51:17;;;;;;;;;;;13.50;99.90;;;;;;5133091;27;19923;-73
2023/05/10 08:53:43;;;;;;;;;;;12.30;99.90;;;;;;5122587;27;20025;-73
2023/05/10 08:56:09;;;;;;;;;;;13.30;99.90;;;;;;5099793;28;19919;-73
2023/05/10 08:58:35;;;;;;;;;;;12.90;99.90;;;;;;5120588;27;19947;-72
2023/05/10 09:01:01;;;;;;;;;;;12.30;99.90;;;;;;5122629;27;20030;-72
2023/05/10 09:03:26;;;;;;;;;;;12.80;99.90;;;;;;5114085;27;19945;-73
2023/05/10 09:05:52;;;;;;;;;;;13.30;99.90;;;;;;5116032;27;20437;-72
2023/05/10 09:08:18;;;;;;;;;;;12.80;99.90;;;;;;5126493;27;19999;-72
2023/05/10 09:10:44;;;;;;;;;;;13.00;99.90;;;;;;5135219;27;19955;-73
2023/05/10 09:13:11;;;;;;;;;;;13.20;99.90;;;;;;5130057;27;19919;-73
2023/05/10 09:15:37;;;;;;;;;;;12.90;99.90;;;;;;5119781;27;19930;-72
2023/05/10 09:18:02;;;;;;;;;;;13.00;99.90;;;;;;5118324;27;20590;-72
2023/05/10 09:20:28;;;;;;;;;;;12.80;99.90;;;;;;5127266;27;19918;-72
2023/05/10 09:22:54;;;;;;;;;;;13.30;99.90;;;;;;5129314;27;19927;-72
2023/05/10 09:25:19;;;;;;;;;;;13.40;99.90;;;;;;5109861;27;19927;-72
2023/05/10 09:27:46;;;;;;;;;;;13.00;99.90;;;;;;5115421;27;19915;-72
2023/05/10 09:30:16;;;;;;;;;;;12.80;99.90;;;;;;5117350;27;20498;-72
2023/05/10 09:32:42;;;;;;;;;;;13.40;99.90;;;;;;5134386;27;20014;-72
2023/05/10 09:35:15;;;;;;;;;;;13.50;99.90;;;;;;5142944;27;19923;-72
2023/05/10 09:37:42;;;;;;;;;;;13.20;99.90;;;;;;5131061;27;20014;-73
2023/05/10 09:40:10;;;;;;;;;;;13.20;99.90;;;;;;5133339;27;19925;-73
2023/05/10 09:42:36;;;;;;;;;;;13.70;99.90;;;;;;5133902;27;20270;-73
2023/05/10 09:45:05;;;;;;;;;;;13.00;99.90;;;;;;5129023;27;20022;-73
2023/05/10 09:47:34;;;;;;;;;;;13.50;99.90;;;;;;5114654;27;19934;-73
2023/05/10 09:50:03;;;;;;;;;;;13.10;99.90;;;;;;5124355;27;19923;-72
2023/05/10 09:52:29;;;;;;;;;;;13.20;99.90;;;;;;5122231;27;20026;-73
2023/05/10 09:54:55;;;;;;;;;;;13.30;99.90;;;;;;5112843;27;19926;-73
2023/05/10 09:57:21;;;;;;;;;;;13.90;99.90;;;;;;5127264;27;19915;-73
2023/05/10 09:59:47;;;;;;;;;;;13.90;99.90;;;;;;5119517;28;19919;-72
2023/05/10 10:02:13;;;;;;;;;;;13.80;99.90;;;;;;5123221;27;20069;-73
2023/05/10 10:04:39;;;;;;;;;;;14.00;99.90;;;;;;5128960;27;19960;-73
2023/05/10 10:07:05;;;;;;;;;;;13.80;99.90;;;;;;5143675;27;19919;-73
2023/05/10 10:09:31;;;;;;;;;;;14.10;99.90;;;;;;5129914;27;19926;-73
2023/05/10 10:11:57;;;;;;;;;;;14.10;99.90;;;;;;5132001;27;19920;-73
2023/05/10 10:14:26;;;;;;;;;;;14.30;99.90;;;;;;5124292;27;19980;-73
2023/05/10 10:16:52;;;;;;;;;;;14.20;99.90;;;;;;5123699;27;20355;-73
2023/05/10 10:19:18;;;;;;;;;;;14.20;99.90;;;;;;5145261;27;19971;-73
2023/05/10 10:21:44;;;;;;;;;;;14.50;99.90;;;;;;5134729;27;19998;-72
2023/05/10 10:24:09;;;;;;;;;;;14.40;99.90;;;;;;5129299;27;20013;-72
2023/05/10 10:26:37;;;;;;;;;;;14.30;99.90;;;;;;5136002;27;19924;-73
2023/05/10 10:29:19;;;;;;;;;;;14.30;99.90;;;;;;5117935;27;19923;-75
2023/05/10 10:31:55;;;;;;;;;;;14.30;99.90;;;;;;5126122;27;19964;-74
2023/05/10 10:34:30;;;;;;;;;;;14.20;99.90;;;;;;5138765;27;20286;-75
2023/05/10 10:36:56;;;;;;;;;;;14.30;99.90;;;;;;5114782;27;19926;-75
2023/05/10 10:39:22;;;;;;;;;;;14.30;99.90;;;;;;5129603;27;19930;-74
2023/05/10 10:41:55;;;;;;;;;;;14.10;99.90;;;;;;5133470;27;19915;-73
2023/05/10 10:44:36;;;;;;;;;;;14.20;99.90;;;;;;5118537;27;20293;-73
2023/05/10 10:47:11;;;;;;;;;;;14.40;99.90;;;;;;5120175;27;19923;-75
2023/05/10 10:49:39;;;;;;;;;;;14.50;99.90;;;;;;5122113;27;19922;-74
2023/05/10 10:52:17;;;;;;;;;;;14.50;99.90;;;;;;5133720;27;19969;-74
2023/05/10 10:55:02;;;;;;;;;;;14.80;99.90;;;;;;5133198;27;19973;-75
2023/05/10 10:57:30;;;;;;;;;;;14.90;99.90;;;;;;5129075;27;19927;-75
2023/05/10 11:00:15;;;;;;;;;;;14.80;99.90;;;;;;5133120;27;19976;-74
2023/05/10 11:02:41;;;;;;;;;;;14.70;99.90;;;;;;5133195;27;19919;-74
2023/05/10 11:05:33;;;;;;;;;;;14.70;99.90;;;;;;5132938;27;19926;-75
2023/05/10 11:07:59;;;;;;;;;;;14.70;99.90;;;;;;5133542;27;20361;-75
2023/05/10 11:10:25;;;;;;;;;;;14.90;99.90;;;;;;5133857;27;19919;-75
2023/05/10 11:13:04;;;;;;;;;;;15.00;99.90;;;;;;5134732;27;20364;-74
2023/05/10 11:15:33;;;;;;;;;;;15.00;99.90;;;;;;5134581;27;20329;-75
2023/05/10 11:17:59;;;;;;;;;;;14.90;99.90;;;;;;5134735;27;19919;-75
2023/05/10 11:20:33;;;;;;;;;;;14.80;99.90;;;;;;5133043;27;19919;-74
2023/05/10 11:23:10;;;;;;;;;;;14.90;99.90;;;;;;5133555;27;19915;-75
2023/05/10 11:25:40;;;;;;;;;;;14.80;99.90;;;;;;5116021;27;19950;-74
2023/05/10 11:28:06;;;;;;;;;;;14.70;99.90;;;;;;5133115;27;19915;-74
2023/05/10 11:30:32;;;;;;;;;;;14.80;99.90;;;;;;5132365;27;19919;-74
2023/05/10 11:32:57;;;;;;;;;;;14.80;99.90;;;;;;5134465;27;19991;-74
2023/05/10 11:35:23;;;;;;;;;;;14.80;99.90;;;;;;5130945;27;20006;-75
2023/05/10 11:37:48;;;;;;;;;;;14.70;99.90;;;;;;5115982;27;20332;-75
2023/05/10 11:40:14;;;;;;;;;;;14.60;99.90;;;;;;5138321;27;19949;-73
2023/05/10 11:42:40;;;;;;;;;;;14.60;99.90;;;;;;5124324;27;19919;-74
2023/05/10 11:45:05;;;;;;;;;;;14.60;99.90;;;;;;5122894;27;19923;-74
2023/05/10 11:47:31;;;;;;;;;;;14.40;99.90;;;;;;5098602;27;19994;-74
2023/05/10 11:49:57;;;;;;;;;;;14.50;99.90;;;;;;5110873;27;19920;-75
2023/05/10 11:52:23;;;;;;;;;;;14.50;99.90;;;;;;5124373;27;19919;-75
2023/05/10 11:54:52;;;;;;;;;;;14.50;99.90;;;;;;5134497;27;19973;-74
2023/05/10 11:57:18;;;;;;;;;;;14.40;99.90;;;;;;5137263;27;19919;-74
2023/05/10 11:59:44;;;;;;;;;;;14.50;99.90;;;;;;5127169;27;19923;-74
2023/05/10 12:02:10;;;;;;;;;;;14.50;99.90;;;;;;5090470;27;19927;-74
2023/05/10 12:04:35;;;;;;;;;;;14.40;99.90;;;;;;5136161;27;19919;-74
2023/05/10 12:07:01;;;;;;;;;;;14.40;99.90;;;;;;5131859;27;20001;-74
2023/05/10 12:09:26;;;;;;;;;;;14.40;99.90;;;;;;5131978;27;19919;-74
2023/05/10 12:11:55;;;;;;;;;;;14.40;99.90;;;;;;5132285;27;19926;-74
2023/05/10 12:14:21;;;;;;;;;;;14.30;99.90;;;;;;5130492;27;19995;-74
2023/05/10 12:16:47;;;;;;;;;;;14.20;99.90;;;;;;5133649;27;19915;-74
2023/05/10 12:19:17;;;;;;;;;;;14.20;99.90;;;;;;5134521;27;19921;-74
2023/05/10 12:21:43;;;;;;;;;;;14.20;99.90;;;;;;5128316;27;19968;-74
2023/05/10 12:24:10;;;;;;;;;;;14.30;99.90;;;;;;5130218;27;19915;-74
2023/05/10 12:26:37;;;;;;;;;;;14.20;99.90;;;;;;5108692;27;19926;-75
2023/05/10 12:29:15;;;;;;;;;;;14.30;99.90;;;;;;5123530;27;19919;-74
2023/05/10 12:31:51;;;;;;;;;;;14.40;99.90;;;;;;5127428;27;19926;-75
2023/05/10 12:34:38;;;;;;;;;;;14.20;99.90;;;;;;5117227;27;19920;-74
2023/05/10 12:37:04;;;;;;;;;;;14.40;99.90;;;;;;5119941;27;19938;-74
2023/05/10 12:39:42;;;;;;;;;;;14.50;99.90;;;;;;5116973;27;20263;-74
2023/05/10 12:42:08;;;;;;;;;;;14.70;99.90;;;;;;5113308;27;19959;-75
2023/05/10 12:44:34;;;;;;;;;;;14.80;99.90;;;;;;5135389;27;19915;-75
2023/05/10 12:46:59;;;;;;;;;;;14.90;99.90;;;;;;5147765;27;19928;-75
2023/05/10 12:49:25;;;;;;;;;;;15.00;99.90;;;;;;5128153;27;19925;-74
2023/05/10 12:51:51;;;;;;;;;;;15.20;99.90;;;;;;5111143;27;20331;-75
2023/05/10 12:54:16;;;;;;;;;;;15.10;99.90;;;;;;5139351;27;19925;-75
2023/05/10 12:56:42;;;;;;;;;;;15.20;99.90;;;;;;5130387;27;19975;-75
2023/05/10 12:59:08;;;;;;;;;;;15.30;99.90;;;;;;5130317;27;19926;-74
2023/05/10 13:01:34;;;;;;;;;;;15.20;99.90;;;;;;5131291;27;19915;-74
2023/05/10 13:04:00;;;;;;;;;;;15.30;99.90;;;;;;5129251;27;19919;-75
2023/05/10 13:06:25;;;;;;;;;;;15.30;99.90;;;;;;5137681;27;19918;-74
2023/05/10 13:08:51;;;;;;;;;;;15.40;99.90;;;;;;5134598;27;19922;-74
2023/05/10 13:11:19;;;;;;;;;;;15.40;99.90;;;;;;5145602;27;19915;-74
2023/05/10 13:13:45;;;;;;;;;;;15.20;99.90;;;;;;5120901;27;19918;-74
2023/05/10 13:16:10;;;;;;;;;;;14.90;99.90;;;;;;5141384;27;20393;-74
2023/05/10 13:18:36;;;;;;;;;;;14.80;99.90;;;;;;5125985;27;20453;-75
2023/05/10 13:21:03;;;;;;;;;;;14.80;99.90;;;;;;5138100;27;19919;-74
2023/05/10 13:23:29;;;;;;;;;;;14.70;99.90;;;;;;5127128;27;19919;-74
2023/05/10 13:25:54;;;;;;;;;;;14.70;99.90;;;;;;5126905;27;20004;-75
2023/05/10 13:28:20;;;;;;;;;;;14.70;99.90;;;;;;5128216;27;19926;-75
2023/05/10 13:30:46;;;;;;;;;;;14.60;99.90;;;;;;5127225;27;19923;-75
2023/05/10 13:33:12;;;;;;;;;;;14.70;99.90;;;;;;5115706;27;19968;-75
2023/05/10 13:35:37;;;;;;;;;;;14.70;99.90;;;;;;5138885;27;20005;-75
2023/05/10 13:38:03;;;;;;;;;;;14.70;99.90;;;;;;5135737;27;19923;-75
2023/05/10 13:40:28;;;;;;;;;;;14.80;99.90;;;;;;5136765;27;19919;-76
2023/05/10 13:42:54;;;;;;;;;;;14.80;99.90;;;;;;5136561;27;19981;-75
2023/05/10 13:45:20;;;;;;;;;;;14.70;99.90;;;;;;5134621;27;19930;-76
2023/05/10 13:47:45;;;;;;;;;;;14.80;99.90;;;;;;5133662;27;20013;-75
2023/05/10 13:50:11;;;;;;;;;;;14.70;99.90;;;;;;5129521;27;20013;-75
2023/05/10 13:52:37;;;;;;;;;;;14.60;99.90;;;;;;5129369;27;19916;-75
2023/05/10 13:55:02;;;;;;;;;;;14.60;99.90;;;;;;5130040;27;20393;-75
2023/05/10 13:57:30;;;;;;;;;;;14.60;99.90;;;;;;5132891;27;20014;-76
2023/05/10 13:59:57;;;;;;;;;;;14.70;99.90;;;;;;5129610;27;19919;-75
2023/05/10 14:02:22;;;;;;;;;;;14.80;99.90;;;;;;5120411;27;19930;-75
2023/05/10 14:04:48;;;;;;;;;;;14.80;99.90;;;;;;5127729;27;19970;-75
2023/05/10 14:07:13;;;;;;;;;;;14.90;99.90;;;;;;5132061;27;19938;-75
2023/05/10 14:09:39;;;;;;;;;;;15.00;99.90;;;;;;5131948;27;20307;-75
2023/05/10 14:12:05;;;;;;;;;;;15.10;99.90;;;;;;5133768;27;19976;-75
2023/05/10 14:14:30;;;;;;;;;;;15.10;99.90;;;;;;5115142;27;19934;-75